LFKF/FSC METAR and TAF weather

Enter ICAO airport designator
Station Type Date Time Source
LFKF METAR 2019/04/23 00:30 UTC NOAA

LFKF 230030Z AUTO 06007KT 030V110 6000 -RADZ BKN011/// BKN016/// OVC088/// ///TCU 15/14 Q0999


Station Type Date Time Source
LFKF Decoded METAR 2019/04/23 00:30 UTC NOAA

Figari, France (LFKF) 41-30N 009-06E 23M
Apr 22, 2019 - 08:30 PM EDT / 2019.04.23 0030 UTC
Wind: from the ENE (060 degrees) at 8 MPH (7 KT) (direction variable):0
Visibility: 3 mile(s):0
Sky conditions: overcast
Weather: light rain, drizzle; Towering cumulus clouds observed
Temperature: 59 F (15 C)
Dew Point: 57 F (14 C)
Relative Humidity: 93%
Pressure (altimeter): 29.50 in. Hg (0999 hPa)
ob: LFKF 230030Z AUTO 06007KT 030V110 6000 -RADZ BKN011/// BKN016/// OVC088/// ///TCU 15/14 Q0999
cycle: 0

Station Type Date Time Source
LFKF TAF 2019/04/22 21:40 UTC NOAA

TAF LFKF 222132Z 2221/2315 CNL

Example: see airport list